Terminal Aerodrome Forecast
Issued by NWS Atlanta, GA

Home | Current Version | Previous Version | Text Only | Print | Product List | Glossary On
Versions: 1 2 3 4 5 6 7 8 9 10 11 12 13 14 15 16 17 18 19 20 21 22 23 24 25 26 27 28 29 30 31 32 33 34 35 36
000
FTAK31 PAJN 171401 AAA
TAFAHN
TAF AMD
PAHN 171401Z 1714/1812 10010KT P6SM VCSH SCT008 SCT015 OVC080
      TEMPO 1714/1718 10010G15KT 6SM -SHRA BKN008 BKN015
     FM172100 10010G15KT 6SM -SHRA SCT015 BKN025 OVC060
     FM180000 09008KT P6SM -SHRA SCT015 SCT025 OVC040 PROB30
      1806/1812 4SM -RA BR BKN015 OVC020
      AMD LTD TO CLD VIS AND WIND=

USA.gov is the U.S. government's official web portal to all federal, state and local government web resources and services.